Time;durP1;ratioP1;P1;durP2;ratioP2;P2;SDS_P1;SDS_P2;PMS_P1;PMS_P2;Temp;Humidity;BMP_temperature;BMP_pressure;BME280_temperature;BME280_humidity;BME280_pressure;Samples;Min_cycle;Max_cycle;Signal;HPM_P1;HPM_P2
2021/10/08 00:00:12;;;;;;;34.17;19.50;;;;;;;11.44;100.00;102188.81;5045944;28;20222;-73
2021/10/08 00:02:43;;;;;;;35.40;19.17;;;;;;;11.39;100.00;102174.91;5041996;28;20207;-73
2021/10/08 00:05:10;;;;;;;34.83;19.23;;;;;;;11.38;100.00;102184.47;5047143;28;21708;-72
2021/10/08 00:07:36;;;;;;;29.13;18.37;;;;;;;11.32;100.00;102180.13;5046385;28;20369;-73
2021/10/08 00:10:06;;;;;;;32.10;18.43;;;;;;;11.27;100.00;102181.03;5044971;28;20203;-72
2021/10/08 00:12:33;;;;;;;35.27;19.03;;;;;;;11.22;100.00;102181.06;5039168;28;20209;-72
2021/10/08 00:14:59;;;;;;;32.60;18.43;;;;;;;11.18;100.00;102184.56;5042769;28;20580;-71
2021/10/08 00:17:25;;;;;;;31.73;17.63;;;;;;;11.14;100.00;102180.22;5040512;28;20284;-73
2021/10/08 00:19:52;;;;;;;31.10;17.50;;;;;;;11.10;100.00;102183.69;5046652;28;20205;-73
2021/10/08 00:22:18;;;;;;;33.23;18.30;;;;;;;11.05;100.00;102175.03;5028963;28;20238;-73
2021/10/08 00:24:45;;;;;;;27.67;17.50;;;;;;;11.03;100.00;102184.59;5047086;28;20279;-72
2021/10/08 00:27:12;;;;;;;28.57;17.43;;;;;;;11.01;100.00;102179.41;5042991;28;20217;-72
2021/10/08 00:29:39;;;;;;;31.47;18.50;;;;;;;10.96;100.00;102175.94;5046817;28;20232;-72
2021/10/08 00:32:06;;;;;;;27.90;17.03;;;;;;;10.93;100.00;102174.19;5042241;28;20234;-74
2021/10/08 00:34:32;;;;;;;29.87;18.17;;;;;;;10.90;100.00;102176.81;5044630;28;20203;-73
2021/10/08 00:36:59;;;;;;;25.03;17.37;;;;;;;10.86;100.00;102182.91;5028293;28;20627;-71
2021/10/08 00:39:26;;;;;;;31.40;18.87;;;;;;;10.83;100.00;102190.75;5030026;28;20200;-73
2021/10/08 00:41:52;;;;;;;28.80;17.80;;;;;;;10.80;100.00;102188.16;5040911;28;20226;-73
2021/10/08 00:44:20;;;;;;;28.17;18.07;;;;;;;10.77;100.00;102189.00;5045537;28;20248;-73
2021/10/08 00:46:47;;;;;;;27.80;17.77;;;;;;;10.76;100.00;102181.19;5025545;28;20256;-73
2021/10/08 00:49:13;;;;;;;27.43;17.30;;;;;;;10.74;100.00;102178.56;5044662;28;20273;-71
2021/10/08 00:51:40;;;;;;;24.77;17.03;;;;;;;10.73;100.00;102184.69;5040614;28;20215;-72
2021/10/08 00:54:06;;;;;;;31.43;18.60;;;;;;;10.71;100.00;102181.22;5045494;28;20270;-74
2021/10/08 00:56:33;;;;;;;28.90;17.27;;;;;;;10.71;100.00;102189.03;5044800;28;20208;-73
2021/10/08 00:58:59;;;;;;;30.13;18.27;;;;;;;10.71;100.00;102182.94;5027740;28;20299;-72
2021/10/08 01:01:28;;;;;;;30.80;18.87;;;;;;;10.69;100.00;102180.31;5026575;28;20684;-72
2021/10/08 01:03:54;;;;;;;31.47;17.30;;;;;;;10.70;100.00;102183.81;5045960;28;20787;-74
2021/10/08 01:06:21;;;;;;;27.53;17.67;;;;;;;10.69;100.00;102189.91;5040307;28;20206;-73
2021/10/08 01:08:47;;;;;;;33.50;19.27;;;;;;;10.67;100.00;102186.44;5047495;28;20214;-73
2021/10/08 01:11:18;;;;;;;30.23;18.70;;;;;;;10.65;100.00;102183.81;5028672;28;20235;-74
2021/10/08 01:13:45;;;;;;;28.13;18.57;;;;;;;10.64;100.00;102176.00;5026103;28;20779;-74
2021/10/08 01:16:12;;;;;;;31.13;18.67;;;;;;;10.64;100.00;102178.59;5027231;28;20212;-73
2021/10/08 01:18:47;;;;;;;29.07;18.87;;;;;;;10.62;100.00;102178.59;5028729;28;20211;-73
2021/10/08 01:21:15;;;;;;;31.17;19.30;;;;;;;10.57;100.00;102176.03;5042033;28;20232;-72
2021/10/08 01:23:41;;;;;;;32.20;19.43;;;;;;;10.57;100.00;102167.31;5028843;28;20231;-72
2021/10/08 01:26:08;;;;;;;30.40;18.97;;;;;;;10.55;100.00;102171.66;5027843;28;20214;-73
2021/10/08 01:28:37;;;;;;;31.63;18.37;;;;;;;10.52;100.00;102180.38;5030328;28;20538;-72
2021/10/08 01:31:10;;;;;;;32.03;19.13;;;;;;;10.50;100.00;102183.84;5041541;28;20989;-71
2021/10/08 01:33:50;;;;;;;30.93;19.37;;;;;;;10.50;100.00;102189.06;5025340;28;20659;-73
2021/10/08 01:36:18;;;;;;;31.80;19.53;;;;;;;10.49;100.00;102182.13;5026694;28;20298;-71
2021/10/08 01:38:47;;;;;;;31.47;19.90;;;;;;;10.47;100.00;102181.25;5028511;28;20255;-72
2021/10/08 01:41:15;;;;;;;30.87;19.53;;;;;;;10.46;100.00;102185.56;5022394;28;20231;-74
2021/10/08 01:43:41;;;;;;;32.00;20.67;;;;;;;10.46;100.00;102179.50;5028617;28;20305;-73
2021/10/08 01:46:09;;;;;;;32.77;20.70;;;;;;;10.44;100.00;102176.03;5025738;28;20282;-72
2021/10/08 01:48:37;;;;;;;34.97;20.53;;;;;;;10.41;100.00;102182.09;5045439;28;20298;-72
2021/10/08 01:51:05;;;;;;;32.53;20.90;;;;;;;10.41;100.00;102182.09;5023862;28;20567;-72
2021/10/08 01:53:34;;;;;;;34.77;21.03;;;;;;;10.44;100.00;102184.72;5048803;28;20664;-74
2021/10/08 01:56:01;;;;;;;32.23;20.80;;;;;;;10.43;100.00;102183.00;5042723;28;20678;-72
2021/10/08 01:58:36;;;;;;;33.17;21.53;;;;;;;10.41;100.00;102185.59;5023471;28;20679;-72
2021/10/08 02:01:03;;;;;;;33.63;20.00;;;;;;;10.42;100.00;102187.31;5044721;28;20801;-73
2021/10/08 02:03:34;;;;;;;31.20;19.93;;;;;;;10.41;100.00;102185.59;5026253;28;20227;-72
2021/10/08 02:06:01;;;;;;;34.60;21.33;;;;;;;10.41;100.00;102195.13;5027666;28;20230;-72
2021/10/08 02:08:30;;;;;;;37.93;21.20;;;;;;;10.41;100.00;102193.44;5025857;28;20208;-71
2021/10/08 02:11:02;;;;;;;35.63;21.70;;;;;;;10.41;100.00;102190.81;5027708;28;20282;-72
2021/10/08 02:13:30;;;;;;;39.00;21.93;;;;;;;10.41;100.00;102190.81;5028306;28;20587;-73
2021/10/08 02:15:57;;;;;;;34.70;21.33;;;;;;;10.41;100.00;102190.81;5029173;28;20203;-73
2021/10/08 02:18:24;;;;;;;33.97;21.43;;;;;;;10.41;100.00;102195.13;5024675;28;20212;-73
2021/10/08 02:20:50;;;;;;;33.33;21.63;;;;;;;10.41;100.00;102202.97;5025201;28;20252;-74
2021/10/08 02:23:17;;;;;;;36.17;21.17;;;;;;;10.44;100.00;102204.72;5025348;28;20209;-73
2021/10/08 02:25:47;;;;;;;37.60;21.77;;;;;;;10.43;100.00;102206.47;5027985;28;20324;-73
2021/10/08 02:28:14;;;;;;;39.87;22.50;;;;;;;10.44;100.00;102204.72;5041042;28;20213;-72
2021/10/08 02:30:42;;;;;;;36.10;20.93;;;;;;;10.42;100.00;102208.19;5029433;28;20227;-74
2021/10/08 02:33:09;;;;;;;31.63;20.83;;;;;;;10.44;100.00;102210.78;5026109;28;20214;-72
2021/10/08 02:35:36;;;;;;;34.23;20.07;;;;;;;10.42;100.00;102207.31;5046281;28;20199;-73
2021/10/08 02:38:04;;;;;;;37.43;20.57;;;;;;;10.40;100.00;102212.53;5026042;28;20697;-72
2021/10/08 02:40:31;;;;;;;32.90;20.67;;;;;;;10.41;100.00;102213.38;5029372;28;20224;-72
2021/10/08 02:42:58;;;;;;;33.77;20.87;;;;;;;10.40;100.00;102209.94;5039995;28;20229;-72
2021/10/08 02:45:26;;;;;;;34.23;21.07;;;;;;;10.40;100.00;102220.34;5029407;28;20221;-72
2021/10/08 02:47:52;;;;;;;27.83;18.67;;;;;;;10.42;100.00;102217.75;5033802;28;20211;-73
2021/10/08 02:50:19;;;;;;;31.03;19.97;;;;;;;10.41;100.00;102216.00;5032830;28;20229;-73
2021/10/08 02:52:46;;;;;;;34.27;21.23;;;;;;;10.42;100.00;102215.16;5033261;28;20642;-72
2021/10/08 02:55:14;;;;;;;32.00;19.93;;;;;;;10.42;100.00;102215.16;5031866;28;20294;-72
2021/10/08 02:57:40;;;;;;;36.83;20.33;;;;;;;10.41;100.00;102216.00;5031785;28;20470;-73
2021/10/08 03:00:11;;;;;;;32.00;19.33;;;;;;;10.41;100.00;102216.88;5030687;28;20203;-74
2021/10/08 03:02:40;;;;;;;35.73;19.80;;;;;;;10.41;100.00;102214.28;5034852;28;20212;-72
2021/10/08 03:05:08;;;;;;;31.13;19.83;;;;;;;10.39;100.00;102217.75;5053302;28;20230;-74
2021/10/08 03:07:34;;;;;;;32.63;20.10;;;;;;;10.39;100.00;102221.22;5032387;28;20199;-71
2021/10/08 03:10:01;;;;;;;30.03;20.27;;;;;;;10.39;100.00;102229.03;5033543;28;20227;-72
2021/10/08 03:12:32;;;;;;;32.83;19.43;;;;;;;10.38;100.00;102221.25;5032503;28;20326;-73
2021/10/08 03:14:58;;;;;;;32.77;19.13;;;;;;;10.40;100.00;102219.50;5051897;28;20253;-73
2021/10/08 03:17:25;;;;;;;33.23;20.27;;;;;;;10.39;100.00;102234.25;5044802;28;20210;-73
2021/10/08 03:19:53;;;;;;;32.53;20.47;;;;;;;10.41;100.00;102226.44;5051316;28;20722;-74
2021/10/08 03:22:19;;;;;;;30.97;19.13;;;;;;;10.40;100.00;102225.56;5043625;28;20232;-72
2021/10/08 03:24:48;;;;;;;33.03;20.43;;;;;;;10.37;100.00;102225.56;5048008;28;20623;-72
2021/10/08 03:27:15;;;;;;;34.03;20.10;;;;;;;10.40;100.00;102232.53;5033959;28;20568;-74
2021/10/08 03:29:41;;;;;;;27.90;18.70;;;;;;;10.37;100.00;102228.16;5033789;28;20207;-73
2021/10/08 03:32:08;;;;;;;35.43;20.97;;;;;;;10.33;100.00;102238.63;5034005;28;20311;-73
2021/10/08 03:34:34;;;;;;;31.90;19.80;;;;;;;10.30;100.00;102230.75;5053270;28;20293;-73
2021/10/08 03:37:05;;;;;;;28.93;19.27;;;;;;;10.28;100.00;102228.13;5031740;28;20245;-72
2021/10/08 03:39:35;;;;;;;35.43;20.50;;;;;;;10.21;100.00;102232.47;5051454;28;20206;-72
2021/10/08 03:42:02;;;;;;;29.00;18.30;;;;;;;10.17;100.00;102228.13;5043737;28;20495;-73
2021/10/08 03:44:34;;;;;;;30.00;19.67;;;;;;;10.14;100.00;102224.66;5033521;28;20239;-73
2021/10/08 03:47:00;;;;;;;29.80;19.10;;;;;;;10.10;100.00;102228.13;5029973;28;20643;-74
2021/10/08 03:49:26;;;;;;;35.07;19.80;;;;;;;10.05;100.00;102231.59;5048734;28;20218;-74
2021/10/08 03:51:54;;;;;;;30.30;19.27;;;;;;;10.00;100.00;102225.50;5028600;28;20464;-73
2021/10/08 03:54:23;;;;;;;31.07;19.60;;;;;;;9.97;100.00;102222.91;5033121;28;20208;-73
2021/10/08 03:56:50;;;;;;;33.23;20.40;;;;;;;9.91;100.00;102224.63;5031075;28;20203;-71
2021/10/08 03:59:17;;;;;;;32.87;20.20;;;;;;;9.86;100.00;102229.81;5026938;28;20223;-72
2021/10/08 04:01:43;;;;;;;33.10;19.80;;;;;;;9.80;100.00;102227.22;5040870;28;20666;-73
2021/10/08 04:04:10;;;;;;;29.23;19.60;;;;;;;9.72;100.00;102232.38;5024040;28;20247;-71
2021/10/08 04:06:36;;;;;;;30.80;19.03;;;;;;;9.68;100.00;102232.38;5027461;28;20262;-73
2021/10/08 04:09:05;;;;;;;30.77;19.70;;;;;;;9.62;100.00;102230.59;5025499;28;20200;-73
2021/10/08 04:11:35;;;;;;;31.03;19.47;;;;;;;9.56;100.00;102241.88;5029258;28;20266;-72
2021/10/08 04:14:03;;;;;;;32.03;20.77;;;;;;;9.51;100.00;102246.19;5027718;28;20450;-72
2021/10/08 04:16:30;;;;;;;28.17;19.40;;;;;;;9.50;100.00;102248.78;5026339;28;20202;-74
2021/10/08 04:18:57;;;;;;;33.13;20.17;;;;;;;9.48;100.00;102243.59;5026054;28;20306;-73
2021/10/08 04:21:24;;;;;;;31.90;20.53;;;;;;;9.44;100.00;102247.03;5028554;28;20239;-72
2021/10/08 04:23:52;;;;;;;34.87;20.90;;;;;;;9.37;100.00;102246.13;5026430;28;20207;-71
2021/10/08 04:26:21;;;;;;;33.87;21.00;;;;;;;9.33;100.00;102246.13;5042346;28;20233;-73
2021/10/08 04:28:49;;;;;;;29.57;19.60;;;;;;;9.26;100.00;102245.22;5020441;28;20211;-74
2021/10/08 04:31:16;;;;;;;30.83;20.67;;;;;;;9.19;100.00;102244.31;5022996;28;20234;-74
2021/10/08 04:33:44;;;;;;;31.27;19.67;;;;;;;9.14;100.00;102250.34;5020267;28;20234;-73
2021/10/08 04:36:11;;;;;;;34.20;20.87;;;;;;;9.08;100.00;102248.59;5040654;28;20204;-71
2021/10/08 04:38:38;;;;;;;34.57;20.80;;;;;;;9.04;100.00;102241.59;5036575;28;21156;-73
2021/10/08 04:41:10;;;;;;;34.13;21.03;;;;;;;8.98;100.00;102252.84;5021110;28;20256;-73
2021/10/08 04:43:39;;;;;;;35.43;20.23;;;;;;;8.93;100.00;102256.28;5036160;28;20215;-71
2021/10/08 04:46:08;;;;;;;27.97;19.37;;;;;;;8.88;100.00;102254.53;5021865;28;20302;-71
2021/10/08 04:48:35;;;;;;;33.43;21.57;;;;;;;8.80;100.00;102250.16;5016397;28;20205;-72
2021/10/08 04:51:02;;;;;;;33.00;20.37;;;;;;;8.77;100.00;102256.19;5034582;28;20232;-71
2021/10/08 04:53:30;;;;;;;37.50;21.93;;;;;;;8.70;100.00;102265.66;5018829;28;20214;-75
2021/10/08 04:55:57;;;;;;;35.70;21.70;;;;;;;8.67;100.00;102262.16;5038611;28;20325;-73
2021/10/08 04:58:24;;;;;;;35.33;20.77;;;;;;;8.64;100.00;102262.16;5019563;28;20461;-72
2021/10/08 05:00:54;;;;;;;33.97;21.60;;;;;;;8.59;100.00;102277.72;5020194;28;20308;-74
2021/10/08 05:03:22;;;;;;;36.00;23.00;;;;;;;8.55;100.00;102275.97;5021333;28;20208;-72
2021/10/08 05:05:54;;;;;;;38.10;22.50;;;;;;;8.53;100.00;102272.44;5061555;28;20234;-74
2021/10/08 05:08:31;;;;;;;37.10;23.17;;;;;;;8.48;100.00;102271.56;5039524;28;20208;-75
2021/10/08 05:10:58;;;;;;;37.83;24.33;;;;;;;8.44;100.00;102269.78;5026279;28;20237;-74
2021/10/08 05:13:27;;;;;;;32.90;22.43;;;;;;;8.43;100.00;102268.06;5027950;28;20213;-73
2021/10/08 05:15:54;;;;;;;39.80;23.77;;;;;;;8.36;100.00;102264.47;5023045;28;20211;-74
2021/10/08 05:18:22;;;;;;;39.90;24.40;;;;;;;8.36;100.00;102271.41;5037470;28;20266;-72
2021/10/08 05:20:49;;;;;;;39.53;24.67;;;;;;;8.28;100.00;102267.00;5044456;28;20224;-72
2021/10/08 05:23:16;;;;;;;43.40;24.37;;;;;;;8.30;100.00;102269.59;5026133;28;20751;-73
2021/10/08 05:25:43;;;;;;;39.67;25.07;;;;;;;8.27;100.00;102270.47;5043225;28;20225;-72
2021/10/08 05:28:09;;;;;;;45.10;26.40;;;;;;;8.26;100.00;102271.31;5023940;28;20638;-71
2021/10/08 05:30:37;;;;;;;43.40;26.27;;;;;;;8.24;100.00;102275.63;5057210;28;20235;-73
2021/10/08 05:33:04;;;;;;;45.40;25.37;;;;;;;8.23;100.00;102276.50;5023980;28;20204;-74
2021/10/08 05:35:32;;;;;;;44.70;25.47;;;;;;;8.24;100.00;102277.34;5024180;28;20201;-74
2021/10/08 05:37:59;;;;;;;44.87;27.03;;;;;;;8.21;100.00;102278.19;5023120;28;20212;-74
2021/10/08 05:40:26;;;;;;;55.73;27.90;;;;;;;8.23;100.00;102283.41;5018826;28;20346;-73
2021/10/08 05:42:53;;;;;;;46.00;27.00;;;;;;;8.25;100.00;102292.06;5037277;28;20299;-71
2021/10/08 05:45:20;;;;;;;45.23;27.37;;;;;;;8.24;100.00;102288.63;5026163;28;20333;-73
2021/10/08 05:47:46;;;;;;;45.80;26.80;;;;;;;8.25;100.00;102295.56;5042641;28;20711;-73
2021/10/08 05:50:13;;;;;;;47.47;26.57;;;;;;;8.24;100.00;102301.59;5024122;28;20244;-71
2021/10/08 05:52:41;;;;;;;47.33;27.33;;;;;;;8.26;100.00;102304.22;5041915;28;20585;-73
2021/10/08 05:55:08;;;;;;;44.27;27.37;;;;;;;8.25;100.00;102298.16;5025956;28;20234;-72
2021/10/08 05:57:34;;;;;;;45.73;27.60;;;;;;;8.28;100.00;102303.38;5019526;28;20236;-72
2021/10/08 06:00:01;;;;;;;50.40;28.37;;;;;;;8.28;100.00;102295.56;5016621;28;20212;-71
2021/10/08 06:02:29;;;;;;;51.60;27.50;;;;;;;8.34;100.00;102295.66;5051028;28;20211;-72
2021/10/08 06:04:56;;;;;;;49.30;28.37;;;;;;;8.33;100.00;102299.09;5016152;28;21257;-73
2021/10/08 06:07:22;;;;;;;48.37;28.20;;;;;;;8.34;100.00;102303.44;5025446;28;20231;-71
2021/10/08 06:09:50;;;;;;;47.23;27.33;;;;;;;8.36;100.00;102306.06;5023309;28;20295;-73
2021/10/08 06:12:16;;;;;;;49.33;29.07;;;;;;;8.38;100.00;102309.53;5043787;28;21062;-71
2021/10/08 06:14:44;;;;;;;47.80;29.20;;;;;;;8.42;100.00;102313.94;5024524;28;20218;-73
2021/10/08 06:17:11;;;;;;;51.93;28.50;;;;;;;8.43;100.00;102312.25;5022997;28;20632;-73
2021/10/08 06:19:40;;;;;;;50.97;29.43;;;;;;;8.45;100.00;102310.53;5020959;28;20208;-71
2021/10/08 06:22:07;;;;;;;53.10;30.10;;;;;;;8.49;100.00;102301.88;5011968;28;20224;-72
2021/10/08 06:24:34;;;;;;;49.37;29.13;;;;;;;8.51;100.00;102314.06;5011614;28;20223;-72
2021/10/08 06:27:02;;;;;;;54.23;28.63;;;;;;;8.53;100.00;102309.72;5014392;28;20207;-74
2021/10/08 06:29:29;;;;;;;52.37;29.57;;;;;;;8.55;100.00;102309.75;5021100;28;20567;-75
2021/10/08 06:31:55;;;;;;;52.90;29.27;;;;;;;8.57;100.00;102321.03;5041325;28;20721;-73
2021/10/08 06:34:22;;;;;;;54.23;29.13;;;;;;;8.60;100.00;102326.28;5017456;28;20209;-73
2021/10/08 06:36:50;;;;;;;52.30;29.40;;;;;;;8.62;100.00;102334.06;5016398;28;20346;-73
2021/10/08 06:39:16;;;;;;;50.83;29.03;;;;;;;8.67;100.00;102337.56;5017644;28;20222;-73
2021/10/08 06:41:43;;;;;;;50.07;28.43;;;;;;;8.69;100.00;102330.69;5023607;28;20234;-73
2021/10/08 06:44:18;;;;;;;48.80;28.10;;;;;;;8.73;100.00;102336.78;5034020;28;20270;-74
2021/10/08 06:46:46;;;;;;;49.90;30.13;;;;;;;8.80;100.00;102333.38;5024855;28;20275;-72
2021/10/08 06:49:13;;;;;;;49.33;28.40;;;;;;;8.84;100.00;102337.72;5017944;28;20201;-72
2021/10/08 06:51:39;;;;;;;45.60;27.40;;;;;;;8.85;100.00;102336.88;5016846;28;20353;-72
2021/10/08 06:54:06;;;;;;;47.80;27.80;;;;;;;8.87;100.00;102351.63;5029458;28;20213;-72
2021/10/08 06:56:33;;;;;;;47.63;27.47;;;;;;;8.91;100.00;102349.94;5034425;28;20199;-72
2021/10/08 06:59:23;;;;;;;44.77;27.20;;;;;;;8.98;100.00;102351.72;5031040;28;20220;-71
2021/10/08 07:01:51;;;;;;;41.57;25.97;;;;;;;9.04;100.00;102346.56;5025931;28;20994;-73
2021/10/08 07:04:17;;;;;;;45.23;25.97;;;;;;;9.07;100.00;102350.91;5018873;28;20217;-74
2021/10/08 07:06:46;;;;;;;49.47;26.90;;;;;;;9.13;100.00;102352.69;5013264;28;20250;-73
2021/10/08 07:09:26;;;;;;;44.63;26.60;;;;;;;9.18;100.00;102351.88;5013340;28;20205;-73
2021/10/08 07:11:52;;;;;;;44.17;25.43;;;;;;;9.20;100.00;102352.75;5018408;28;20240;-73
2021/10/08 07:14:19;;;;;;;42.80;26.53;;;;;;;9.25;100.00;102353.66;5022645;28;20719;-72
2021/10/08 07:16:47;;;;;;;43.13;24.90;;;;;;;9.27;100.00;102362.34;5031125;28;20298;-74
2021/10/08 07:19:15;;;;;;;40.70;25.63;;;;;;;9.32;100.00;102367.56;5032739;28;20753;-72
2021/10/08 07:21:42;;;;;;;43.53;26.10;;;;;;;9.35;100.00;102375.41;5031791;28;20256;-72
2021/10/08 07:24:09;;;;;;;39.87;25.80;;;;;;;9.42;100.00;102369.38;5034422;28;20206;-72
2021/10/08 07:26:36;;;;;;;40.47;24.97;;;;;;;9.45;100.00;102366.81;5037431;28;20313;-74
2021/10/08 07:29:02;;;;;;;39.07;25.37;;;;;;;9.50;100.00;102373.75;5035426;28;20270;-74
2021/10/08 07:31:29;;;;;;;39.70;24.97;;;;;;;9.53;100.00;102372.03;5038975;28;20230;-72
2021/10/08 07:33:57;;;;;;;39.83;24.33;;;;;;;9.61;100.00;102375.56;5037200;28;20230;-73
2021/10/08 07:36:23;;;;;;;45.33;25.80;;;;;;;9.66;100.00;102376.47;5042687;28;20795;-74
2021/10/08 07:38:50;;;;;;;42.23;25.33;;;;;;;9.70;100.00;102384.31;5039768;28;20229;-72
2021/10/08 07:41:17;;;;;;;44.27;26.50;;;;;;;9.68;100.00;102384.31;5045542;28;20814;-73
2021/10/08 07:43:43;;;;;;;41.40;24.67;;;;;;;9.67;100.00;102385.16;5044060;28;20898;-74
2021/10/08 07:46:11;;;;;;;39.03;26.07;;;;;;;9.68;100.00;102389.50;5044923;28;20310;-74
2021/10/08 07:48:38;;;;;;;42.43;26.83;;;;;;;9.59;100.00;102392.06;5044915;28;20236;-73
2021/10/08 07:51:06;;;;;;;40.00;25.17;;;;;;;9.56;100.00;102395.50;5045138;28;20227;-73
2021/10/08 07:53:32;;;;;;;46.27;26.23;;;;;;;9.57;100.00;102385.94;5045825;28;20203;-72
2021/10/08 07:56:00;;;;;;;39.97;26.00;;;;;;;9.68;100.00;102393.84;5043549;28;20207;-74
2021/10/08 07:58:27;;;;;;;39.23;26.83;;;;;;;9.79;100.00;102397.38;5042672;28;20226;-74
2021/10/08 08:00:54;;;;;;;38.87;24.73;;;;;;;9.85;100.00;102395.69;5044749;28;20241;-74
2021/10/08 08:03:21;;;;;;;41.40;24.80;;;;;;;9.84;100.00;102404.34;5044783;28;20211;-71
2021/10/08 08:05:47;;;;;;;42.53;24.47;;;;;;;9.85;100.00;102406.09;5047358;28;20211;-73
2021/10/08 08:08:15;;;;;;;39.87;23.27;;;;;;;9.82;100.00;102411.28;5045311;28;20202;-73
2021/10/08 08:10:42;;;;;;;37.97;24.33;;;;;;;9.88;100.00;102412.19;5043299;28;20269;-73
2021/10/08 08:13:09;;;;;;;39.30;24.27;;;;;;;9.95;100.00;102404.41;5045984;28;20935;-73
2021/10/08 08:15:36;;;;;;;37.53;25.37;;;;;;;9.98;100.00;102409.63;5043848;28;20199;-71
2021/10/08 08:18:02;;;;;;;40.50;23.43;;;;;;;10.07;100.00;102406.19;5044304;28;20249;-73
2021/10/08 08:20:29;;;;;;;35.07;23.37;;;;;;;10.14;100.00;102405.34;5044363;28;20799;-74
2021/10/08 08:22:55;;;;;;;36.97;23.13;;;;;;;10.22;100.00;102413.22;5044994;28;20638;-73
2021/10/08 08:25:23;;;;;;;38.07;23.80;;;;;;;10.26;100.00;102411.50;5045465;28;20233;-72
2021/10/08 08:27:49;;;;;;;36.23;22.80;;;;;;;10.28;100.00;102405.41;5046952;28;20222;-71
2021/10/08 08:30:16;;;;;;;36.17;21.83;;;;;;;10.36;100.00;102411.56;5039929;28;20227;-72
2021/10/08 08:32:42;;;;;;;33.53;20.33;;;;;;;10.44;100.00;102408.97;5046048;28;20199;-72
2021/10/08 08:35:10;;;;;;;33.43;20.33;;;;;;;10.50;100.00;102418.53;5044978;28;20222;-73
2021/10/08 08:37:37;;;;;;;36.07;21.50;;;;;;;10.48;99.11;102420.28;5046470;28;20211;-73
2021/10/08 08:40:06;;;;;;;33.17;20.97;;;;;;;10.54;100.00;102417.72;5042566;28;20211;-72
2021/10/08 08:42:35;;;;;;;41.00;23.30;;;;;;;10.60;99.91;102420.31;5047116;28;20211;-74
2021/10/08 08:45:02;;;;;;;33.83;20.63;;;;;;;10.61;99.53;102419.47;5041919;28;20207;-73
2021/10/08 08:47:28;;;;;;;34.30;20.47;;;;;;;10.78;98.49;102420.38;5046674;28;20227;-72
2021/10/08 08:49:54;;;;;;;33.50;20.00;;;;;;;10.92;96.25;102429.94;5043724;28;20239;-73
2021/10/08 08:52:22;;;;;;;26.90;18.93;;;;;;;10.91;94.89;102426.47;5048554;28;20199;-73
2021/10/08 08:54:49;;;;;;;32.07;20.07;;;;;;;10.94;94.68;102429.09;5043996;28;20433;-72
2021/10/08 08:57:18;;;;;;;31.60;19.87;;;;;;;11.02;95.39;102428.22;5045637;28;20203;-73
2021/10/08 09:00:13;;;;;;;30.37;19.47;;;;;;;11.17;94.03;102429.09;5043515;28;20864;-72
2021/10/08 09:02:40;;;;;;;31.57;19.57;;;;;;;11.22;92.22;102431.72;5029484;28;20235;-73
2021/10/08 09:05:16;;;;;;;28.73;18.80;;;;;;;11.29;91.85;102433.44;5044446;28;20739;-71
2021/10/08 09:07:43;;;;;;;27.67;17.87;;;;;;;11.42;91.21;102436.91;5044711;28;20223;-71
2021/10/08 09:10:15;;;;;;;27.20;17.20;;;;;;;11.47;90.87;102437.78;5042982;28;20238;-72
2021/10/08 09:12:43;;;;;;;27.80;16.83;;;;;;;11.54;89.45;102442.13;5044189;28;20513;-73
2021/10/08 09:15:12;;;;;;;30.30;17.23;;;;;;;11.56;88.90;102445.59;5044571;28;20196;-72
2021/10/08 09:17:38;;;;;;;27.33;17.03;;;;;;;11.65;89.11;102433.41;5042842;28;20215;-72
2021/10/08 09:20:07;;;;;;;29.50;17.67;;;;;;;11.74;87.82;102443.84;5044455;28;20203;-73
2021/10/08 09:22:51;;;;;;;31.97;15.33;;;;;;;11.83;84.42;102443.81;5043121;28;20243;-70
2021/10/08 09:25:21;;;;;;;25.23;15.83;;;;;;;11.97;84.29;102450.78;5044027;28;20227;-73
2021/10/08 09:27:52;;;;;;;25.83;14.77;;;;;;;12.03;82.93;102448.13;5042182;28;20225;-73
2021/10/08 09:30:20;;;;;;;25.27;14.43;;;;;;;12.12;83.41;102442.91;5042842;28;20223;-73
2021/10/08 09:32:49;;;;;;;23.67;12.93;;;;;;;12.12;80.26;102442.91;5043143;28;20235;-71
2021/10/08 09:35:18;;;;;;;24.60;12.87;;;;;;;12.23;82.27;102440.25;5045033;28;20292;-73
2021/10/08 09:37:46;;;;;;;24.47;13.37;;;;;;;12.31;78.36;102439.34;5042754;28;20210;-72
2021/10/08 09:40:24;;;;;;;25.23;13.13;;;;;;;12.37;76.23;102442.81;5045132;28;20296;-73
2021/10/08 09:42:55;;;;;;;25.47;12.10;;;;;;;12.39;75.74;102447.13;5040195;28;20207;-73
2021/10/08 09:45:39;;;;;;;24.73;12.10;;;;;;;12.43;72.23;102453.22;5044060;28;20219;-71
2021/10/08 09:48:06;;;;;;;19.10;10.80;;;;;;;12.43;73.00;102448.00;5033566;28;20684;-72
2021/10/08 09:50:32;;;;;;;18.23;11.13;;;;;;;12.51;71.48;102443.59;5042400;28;20243;-72
2021/10/08 09:53:13;;;;;;;20.80;11.03;;;;;;;12.58;71.89;102440.06;5037794;28;20901;-71
2021/10/08 09:55:40;;;;;;;24.13;9.93;;;;;;;12.71;69.36;102442.59;5043164;28;20208;-71
2021/10/08 09:58:07;;;;;;;16.77;9.90;;;;;;;12.73;67.59;102451.31;5039112;28;21119;-71
2021/10/08 10:00:44;;;;;;;18.07;8.77;;;;;;;12.79;67.74;102446.91;5044089;28;20227;-72
2021/10/08 10:03:12;;;;;;;19.33;9.20;;;;;;;12.85;66.85;102441.63;5041629;28;20213;-72
2021/10/08 10:05:39;;;;;;;19.77;9.17;;;;;;;12.97;66.81;102442.44;5044074;28;20209;-71
2021/10/08 10:08:06;;;;;;;20.53;9.63;;;;;;;12.96;67.04;102452.03;5042032;28;20205;-72
2021/10/08 10:10:34;;;;;;;15.77;9.67;;;;;;;12.96;67.11;102454.63;5044483;28;20229;-73
2021/10/08 10:13:01;;;;;;;23.93;9.83;;;;;;;13.03;67.17;102445.88;5042534;28;20199;-76
2021/10/08 10:15:28;;;;;;;16.87;9.73;;;;;;;13.10;68.19;102435.34;5042837;28;20214;-72
2021/10/08 10:17:57;;;;;;;16.17;9.63;;;;;;;13.13;68.77;102432.72;5043174;28;20287;-73
2021/10/08 10:20:24;;;;;;;22.10;10.43;;;;;;;13.12;67.16;102447.56;5042955;28;20231;-71
2021/10/08 10:22:51;;;;;;;17.73;10.13;;;;;;;13.15;65.92;102437.03;5040995;28;20203;-73
2021/10/08 10:25:17;;;;;;;18.37;9.77;;;;;;;13.10;66.57;102437.97;5043463;28;20203;-73
2021/10/08 10:27:44;;;;;;;17.10;9.77;;;;;;;13.15;64.69;102433.56;5042719;28;20255;-74
2021/10/08 10:30:12;;;;;;;22.50;9.43;;;;;;;13.13;64.64;102432.72;5044303;28;20205;-74
2021/10/08 10:32:45;;;;;;;15.40;9.13;;;;;;;13.18;65.59;102444.03;5043715;28;20217;-73
2021/10/08 10:35:41;;;;;;;14.97;8.93;;;;;;;13.24;64.16;102438.72;5042300;28;20208;-74
2021/10/08 10:38:29;;;;;;;13.53;8.60;;;;;;;13.29;66.00;102431.69;5040655;28;20211;-74
2021/10/08 10:41:24;;;;;;;16.50;8.77;;;;;;;13.40;64.70;102429.00;5041875;28;20226;-74
2021/10/08 10:43:55;;;;;;;18.77;8.83;;;;;;;13.44;63.70;102428.97;5042979;28;20244;-71
2021/10/08 10:46:40;;;;;;;16.17;8.40;;;;;;;13.46;64.14;102415.00;5042907;28;20250;-73
2021/10/08 10:49:38;;;;;;;20.67;8.57;;;;;;;13.52;61.57;102422.78;5043994;28;20305;-73
2021/10/08 10:52:17;;;;;;;13.63;8.17;;;;;;;13.69;61.16;102420.00;5040393;28;20230;-72
2021/10/08 10:55:10;;;;;;;15.27;7.40;;;;;;;13.78;61.11;102419.91;5042808;28;20489;-73
2021/10/08 10:57:58;;;;;;;13.90;7.27;;;;;;;13.78;58.72;102425.16;5044311;28;20238;-72
2021/10/08 11:00:37;;;;;;;13.27;6.60;;;;;;;13.89;59.61;102425.88;5041565;28;20235;-72
2021/10/08 11:03:13;;;;;;;10.57;6.40;;;;;;;13.90;56.69;102422.38;5043020;28;20251;-71
2021/10/08 11:05:42;;;;;;;10.67;6.00;;;;;;;14.00;58.81;102413.53;5044067;28;20203;-73
2021/10/08 11:08:14;;;;;;;13.13;6.60;;;;;;;14.11;56.84;102417.78;5045063;28;20222;-71
2021/10/08 11:10:45;;;;;;;12.53;6.13;;;;;;;14.11;55.76;102420.41;5047718;28;20231;-73
2021/10/08 11:13:32;;;;;;;15.07;6.20;;;;;;;14.09;53.92;102416.91;5046581;28;20674;-73